Time;durP1;ratioP1;P1;durP2;ratioP2;P2;SDS_P1;SDS_P2;PMS_P1;PMS_P2;Temp;Humidity;BMP_temperature;BMP_pressure;BME280_temperature;BME280_humidity;BME280_pressure;Samples;Min_cycle;Max_cycle;Signal;HPM_P1;HPM_P2
2021/09/19 00:01:02;;;;;;;5.63;4.30;;;;;;;16.99;57.69;101464.41;4949163;28;120057;-65
2021/09/19 00:03:30;;;;;;;5.53;4.13;;;;;;;16.98;57.89;101465.38;4942291;28;119222;-65
2021/09/19 00:05:57;;;;;;;6.43;4.22;;;;;;;16.98;57.78;101465.38;4951443;28;124167;-66
2021/09/19 00:08:27;;;;;;;5.95;4.22;;;;;;;16.97;57.85;101467.22;4956255;28;123856;-65
2021/09/19 00:10:55;;;;;;;5.85;4.20;;;;;;;16.97;58.09;101463.66;4955561;28;118220;-65
2021/09/19 00:13:22;;;;;;;5.20;4.25;;;;;;;16.96;57.76;101461.94;4959356;28;119333;-65
2021/09/19 00:15:49;;;;;;;5.07;4.10;;;;;;;16.95;57.96;101460.22;4961549;28;124885;-65
2021/09/19 00:18:17;;;;;;;6.30;4.75;;;;;;;16.93;57.81;101458.50;4954302;28;124637;-65
2021/09/19 00:20:45;;;;;;;6.00;4.43;;;;;;;16.92;57.91;101456.78;4962308;28;119628;-65
2021/09/19 00:23:12;;;;;;;7.47;4.10;;;;;;;16.92;57.78;101459.47;4954957;28;119462;-65
2021/09/19 00:25:39;;;;;;;5.53;4.35;;;;;;;16.91;57.88;101463.09;4949105;28;124039;-66
2021/09/19 00:28:06;;;;;;;6.35;4.65;;;;;;;16.90;57.76;101453.34;4956681;28;124338;-65
2021/09/19 00:30:34;;;;;;;5.38;4.00;;;;;;;16.90;57.82;101463.19;4951689;28;120225;-65
2021/09/19 00:33:02;;;;;;;5.68;4.20;;;;;;;16.89;57.86;101451.59;4952453;28;119847;-65
2021/09/19 00:35:29;;;;;;;6.05;4.13;;;;;;;16.88;57.74;101452.56;4948211;28;124168;-65
2021/09/19 00:37:56;;;;;;;5.88;4.30;;;;;;;16.87;57.91;101453.53;4951945;28;123957;-65
2021/09/19 00:40:24;;;;;;;5.45;4.15;;;;;;;16.85;57.94;101450.09;4952377;28;120006;-65
2021/09/19 00:42:51;;;;;;;6.55;4.10;;;;;;;16.83;58.02;101452.00;4957156;28;119175;-65
2021/09/19 00:45:21;;;;;;;5.85;4.47;;;;;;;16.82;58.04;101452.06;4948169;28;124199;-65
2021/09/19 00:47:48;;;;;;;5.95;4.47;;;;;;;16.79;57.97;101445.09;4949331;28;124449;-65
2021/09/19 00:50:18;;;;;;;6.15;4.43;;;;;;;16.77;58.18;101447.00;4946593;28;119537;-65
2021/09/19 00:52:46;;;;;;;6.15;4.68;;;;;;;16.74;58.12;101442.72;4952760;28;119257;-65
2021/09/19 00:55:15;;;;;;;6.22;4.72;;;;;;;16.74;58.09;101447.16;4955783;28;124298;-65
2021/09/19 00:57:46;;;;;;;7.60;5.22;;;;;;;16.73;58.43;101445.47;4951624;28;124405;-64
2021/09/19 01:00:17;;;;;;;5.95;4.50;;;;;;;16.69;58.58;101450.16;4952937;28;119329;-64
2021/09/19 01:02:45;;;;;;;7.57;4.88;;;;;;;16.69;58.47;101454.66;4948948;28;119399;-65
2021/09/19 01:05:16;;;;;;;7.88;5.35;;;;;;;16.68;58.34;101447.56;4948363;28;125235;-65
2021/09/19 01:07:45;;;;;;;6.93;5.05;;;;;;;16.68;58.26;101447.56;4953552;28;124094;-65
2021/09/19 01:10:15;;;;;;;6.63;5.10;;;;;;;16.67;58.25;101445.81;4948282;28;119595;-65
2021/09/19 01:12:43;;;;;;;6.03;4.78;;;;;;;16.64;58.25;101440.69;4960703;28;118880;-65
2021/09/19 01:15:12;;;;;;;7.47;5.18;;;;;;;16.61;58.47;101440.84;4947280;28;122839;-65
2021/09/19 01:17:40;;;;;;;7.63;5.38;;;;;;;16.60;58.26;101449.84;4960769;28;123891;-65
2021/09/19 01:20:13;;;;;;;7.15;5.35;;;;;;;16.58;58.46;101435.72;4955196;28;121140;-65
2021/09/19 01:22:44;;;;;;;7.60;5.30;;;;;;;16.57;58.30;101445.53;4942393;28;119845;-65
2021/09/19 01:25:14;;;;;;;7.28;5.35;;;;;;;16.57;58.38;101444.69;4960909;28;123228;-65
2021/09/19 01:27:45;;;;;;;7.30;5.43;;;;;;;16.54;58.22;101446.59;4973796;28;124034;-65
2021/09/19 01:30:13;;;;;;;6.95;5.28;;;;;;;16.52;58.29;101443.16;4966655;28;120084;-65
2021/09/19 01:32:40;;;;;;;7.82;5.68;;;;;;;16.52;58.26;101448.50;4955509;28;119704;-65
2021/09/19 01:35:09;;;;;;;6.97;5.38;;;;;;;16.49;58.41;101443.31;4960075;28;123946;-65
2021/09/19 01:37:37;;;;;;;7.18;5.47;;;;;;;16.46;58.34;101443.53;4965146;28;127030;-64
2021/09/19 01:40:06;;;;;;;6.95;5.50;;;;;;;16.44;58.31;101442.72;4961591;28;119317;-65
2021/09/19 01:42:34;;;;;;;8.35;5.70;;;;;;;16.42;58.28;101441.97;4962628;28;119307;-65
2021/09/19 01:45:01;;;;;;;9.00;5.97;;;;;;;16.40;58.43;101435.84;4965484;28;123773;-65
2021/09/19 01:47:28;;;;;;;7.20;5.47;;;;;;;16.39;58.53;101436.81;4951389;28;123955;-65
2021/09/19 01:49:55;;;;;;;6.55;5.13;;;;;;;16.37;58.59;101438.72;4948057;28;119741;-65
2021/09/19 01:52:22;;;;;;;7.28;5.68;;;;;;;16.37;58.67;101437.84;4955105;28;118971;-64
2021/09/19 01:54:49;;;;;;;7.07;5.50;;;;;;;16.36;58.66;101437.00;4962349;28;124787;-65
2021/09/19 01:57:22;;;;;;;6.80;5.00;;;;;;;16.34;58.73;101433.56;4964527;28;125589;-65
2021/09/19 01:59:51;;;;;;;8.57;5.72;;;;;;;16.32;58.67;101424.78;4953679;28;119213;-64
2021/09/19 02:02:19;;;;;;;8.25;6.18;;;;;;;16.30;58.68;101426.69;4943725;28;119219;-65
2021/09/19 02:04:49;;;;;;;8.23;6.10;;;;;;;16.25;58.87;101418.91;4955162;28;124699;-64
2021/09/19 02:07:17;;;;;;;7.70;5.80;;;;;;;16.22;58.88;101420.91;4957379;28;123939;-64
2021/09/19 02:09:44;;;;;;;7.75;5.68;;;;;;;16.18;59.08;101422.03;4945741;28;120977;-64
2021/09/19 02:12:14;;;;;;;8.32;5.78;;;;;;;16.14;59.12;101414.22;4955777;28;120560;-65
2021/09/19 02:14:43;;;;;;;8.65;6.07;;;;;;;16.12;59.26;101408.13;4963862;28;124051;-65
2021/09/19 02:17:12;;;;;;;7.88;5.75;;;;;;;16.12;59.07;101413.47;4953664;28;124015;-65
2021/09/19 02:19:40;;;;;;;7.47;5.63;;;;;;;16.11;59.26;101417.06;4950958;28;118238;-67
2021/09/19 02:22:10;;;;;;;8.15;5.65;;;;;;;16.10;59.28;101412.66;4958872;28;119633;-65
2021/09/19 02:24:39;;;;;;;9.15;5.93;;;;;;;16.09;59.23;101402.09;4960353;28;123153;-64
2021/09/19 02:27:07;;;;;;;9.50;5.72;;;;;;;16.06;59.34;101403.13;4959990;28;124743;-65
2021/09/19 02:29:35;;;;;;;7.90;5.57;;;;;;;16.05;59.38;101406.75;4961784;28;119188;-65
2021/09/19 02:32:03;;;;;;;8.63;5.75;;;;;;;16.05;59.37;101401.41;4959771;28;119291;-65
2021/09/19 02:34:30;;;;;;;7.05;5.47;;;;;;;16.05;59.52;101400.53;4958437;28;124812;-64
2021/09/19 02:36:58;;;;;;;8.40;5.53;;;;;;;16.04;59.53;101389.00;4950755;28;96720;-65
2021/09/19 02:39:25;;;;;;;7.80;5.78;;;;;;;16.04;59.44;101394.34;4971224;28;119375;-65
2021/09/19 02:41:53;;;;;;;8.07;5.82;;;;;;;16.03;59.48;101397.97;4961228;28;118812;-65
2021/09/19 02:44:20;;;;;;;8.32;5.80;;;;;;;16.02;59.71;101396.25;4950078;28;123917;-65
2021/09/19 02:46:47;;;;;;;8.38;6.22;;;;;;;16.02;59.55;101393.56;4959413;28;124001;-65
2021/09/19 02:49:14;;;;;;;9.45;6.10;;;;;;;16.02;59.76;101396.25;4960302;28;118388;-65
2021/09/19 02:51:41;;;;;;;8.85;5.93;;;;;;;16.02;59.72;101390.91;4960057;28;118003;-65
2021/09/19 02:54:09;;;;;;;8.55;6.05;;;;;;;16.02;60.06;101390.91;4955895;28;123871;-65
2021/09/19 02:56:36;;;;;;;8.20;5.88;;;;;;;16.03;59.91;101389.06;4957666;28;124298;-65
2021/09/19 02:59:03;;;;;;;7.78;5.90;;;;;;;16.02;59.91;101382.88;4948555;28;120126;-65
2021/09/19 03:01:30;;;;;;;8.73;6.03;;;;;;;16.03;59.87;101391.75;4961808;28;119732;-65
2021/09/19 03:03:57;;;;;;;10.95;6.45;;;;;;;16.03;59.94;101381.94;4961726;28;124114;-65
2021/09/19 03:06:26;;;;;;;10.32;6.57;;;;;;;16.01;59.99;101383.84;4956719;28;124078;-65
2021/09/19 03:08:53;;;;;;;8.70;5.80;;;;;;;16.00;60.11;101382.13;4957425;28;119462;-65
2021/09/19 03:11:20;;;;;;;8.70;5.95;;;;;;;15.98;60.10;101384.03;4956306;28;119263;-65
2021/09/19 03:13:47;;;;;;;8.77;6.50;;;;;;;15.99;60.02;101377.72;4961385;28;124089;-65
2021/09/19 03:16:14;;;;;;;9.77;6.18;;;;;;;16.00;59.99;101379.44;4954499;28;124808;-65
2021/09/19 03:18:42;;;;;;;9.63;6.65;;;;;;;15.99;60.19;101372.34;4957946;28;119170;-65
2021/09/19 03:21:09;;;;;;;7.93;6.32;;;;;;;15.98;60.31;101376.00;4957878;28;118836;-65
2021/09/19 03:23:36;;;;;;;9.00;6.78;;;;;;;15.98;60.22;101384.03;4957573;28;124706;-65
2021/09/19 03:26:03;;;;;;;9.35;6.80;;;;;;;15.97;60.31;101376.94;4953256;28;124658;-65
2021/09/19 03:28:32;;;;;;;10.35;6.30;;;;;;;15.99;60.34;101384.88;4951339;28;120039;-65
2021/09/19 03:30:59;;;;;;;9.55;6.60;;;;;;;15.99;60.34;101385.72;4955852;28;118906;-65
2021/09/19 03:33:26;;;;;;;8.88;6.28;;;;;;;16.00;60.45;101376.78;4952572;28;124631;-65
2021/09/19 03:35:53;;;;;;;8.65;6.38;;;;;;;16.01;60.33;101377.63;4960479;28;124153;-65
2021/09/19 03:38:20;;;;;;;9.48;6.30;;;;;;;16.01;60.29;101383.84;4954625;28;119424;-65
2021/09/19 03:40:48;;;;;;;9.35;6.63;;;;;;;16.03;60.40;101386.41;4942373;28;119080;-65
2021/09/19 03:43:15;;;;;;;10.23;6.63;;;;;;;16.04;60.32;101378.31;4951897;28;123856;-65
2021/09/19 03:45:42;;;;;;;10.88;6.57;;;;;;;16.03;60.30;101381.94;4963052;28;124085;-66
2021/09/19 03:48:10;;;;;;;9.40;6.35;;;;;;;16.02;60.32;101380.22;4947500;28;120534;-66
2021/09/19 03:50:37;;;;;;;10.00;6.35;;;;;;;16.03;60.53;101381.94;4960813;28;120252;-66
2021/09/19 03:53:05;;;;;;;9.90;6.65;;;;;;;16.04;60.27;101380.13;4948527;28;123308;-67
2021/09/19 03:55:33;;;;;;;9.55;6.50;;;;;;;16.05;60.54;101384.50;4946548;28;124757;-66
2021/09/19 03:58:00;;;;;;;9.95;6.85;;;;;;;16.05;60.49;101385.38;4956840;28;119598;-66
2021/09/19 04:00:29;;;;;;;10.05;6.75;;;;;;;16.04;60.57;101383.66;4954032;28;119308;-66
2021/09/19 04:02:56;;;;;;;10.63;6.85;;;;;;;16.03;60.51;101387.28;4958184;28;124013;-67
2021/09/19 04:05:24;;;;;;;10.35;6.75;;;;;;;16.02;60.65;101382.88;4955372;28;124643;-67
2021/09/19 04:07:51;;;;;;;11.68;7.25;;;;;;;15.99;60.52;101385.72;4950270;28;119166;-67
2021/09/19 04:10:18;;;;;;;8.88;5.95;;;;;;;15.98;60.69;101384.03;4950744;28;119176;-66
2021/09/19 04:12:45;;;;;;;10.98;6.88;;;;;;;15.98;60.63;101384.03;4956858;28;124827;-67
2021/09/19 04:15:12;;;;;;;11.85;6.88;;;;;;;15.97;60.69;101387.63;4952710;28;124316;-68
2021/09/19 04:17:40;;;;;;;8.60;6.40;;;;;;;15.98;60.80;101394.69;4961343;28;119313;-67
2021/09/19 04:20:08;;;;;;;10.50;7.38;;;;;;;15.96;60.71;101385.91;4954654;28;118968;-67
2021/09/19 04:22:36;;;;;;;9.43;7.20;;;;;;;15.97;60.90;101390.28;4953161;28;124554;-67
2021/09/19 04:25:04;;;;;;;10.95;6.40;;;;;;;15.96;60.96;101385.91;4960145;28;124280;-66
2021/09/19 04:27:31;;;;;;;11.35;6.72;;;;;;;15.97;60.95;101398.31;4938390;28;118318;-67
2021/09/19 04:29:59;;;;;;;11.32;7.57;;;;;;;15.96;61.14;101386.78;4950539;28;119147;-67
2021/09/19 04:32:26;;;;;;;9.30;6.90;;;;;;;15.98;61.30;101394.69;4955997;28;124649;-67
2021/09/19 04:34:53;;;;;;;10.65;6.85;;;;;;;15.99;61.22;101385.72;4962730;28;123958;-67
2021/09/19 04:37:20;;;;;;;10.70;6.93;;;;;;;15.99;61.33;101385.72;4956138;28;119134;-67
2021/09/19 04:39:48;;;;;;;9.68;6.95;;;;;;;16.01;61.35;101389.19;4947624;28;119975;-67
2021/09/19 04:42:15;;;;;;;12.02;7.05;;;;;;;16.03;61.56;101387.28;4968870;22;124794;-62
2021/09/19 04:44:42;;;;;;;11.45;7.20;;;;;;;16.06;61.53;101397.78;4941163;28;123925;-62
2021/09/19 04:47:09;;;;;;;10.90;7.38;;;;;;;16.07;61.53;101388.81;4933839;28;119097;-62
2021/09/19 04:49:36;;;;;;;14.20;7.05;;;;;;;16.08;61.37;101390.53;4942300;28;118209;-62
2021/09/19 04:52:04;;;;;;;9.43;6.75;;;;;;;16.09;61.34;101386.91;4934925;28;124407;-62
2021/09/19 04:54:31;;;;;;;10.77;7.15;;;;;;;16.09;61.48;101386.91;4933070;28;123727;-61
2021/09/19 04:56:59;;;;;;;9.38;6.82;;;;;;;16.11;61.50;101385.00;4933118;28;119718;-62
2021/09/19 04:59:26;;;;;;;10.13;7.22;;;;;;;16.11;61.51;101385.00;4934654;28;119568;-62
2021/09/19 05:01:53;;;;;;;12.30;7.25;;;;;;;16.12;61.58;101386.75;4930504;28;124255;-62
2021/09/19 05:04:21;;;;;;;11.40;7.60;;;;;;;16.11;61.51;101385.00;4932485;28;124789;-62
2021/09/19 05:06:48;;;;;;;9.80;7.38;;;;;;;16.11;61.54;101384.16;4934392;28;119383;-62
2021/09/19 05:09:15;;;;;;;10.55;7.00;;;;;;;16.11;61.39;101379.66;4928242;28;118839;-62
2021/09/19 05:11:42;;;;;;;11.05;7.63;;;;;;;16.10;61.43;101380.59;4934409;28;124639;-63
2021/09/19 05:14:09;;;;;;;11.18;7.88;;;;;;;16.07;61.53;101378.13;4935358;28;123951;-63
2021/09/19 05:16:36;;;;;;;12.23;7.90;;;;;;;16.07;61.43;101387.97;4938383;28;119358;-63
2021/09/19 05:19:04;;;;;;;13.45;8.02;;;;;;;16.05;61.62;101385.38;4934572;28;118994;-63
2021/09/19 05:21:31;;;;;;;12.45;8.10;;;;;;;16.05;61.48;101390.72;4932866;28;124201;-63
2021/09/19 05:23:58;;;;;;;13.88;8.38;;;;;;;16.03;61.68;101381.94;4930792;28;124001;-63
2021/09/19 05:26:26;;;;;;;11.77;7.90;;;;;;;16.02;61.80;101393.56;4931889;28;121133;-63
2021/09/19 05:28:53;;;;;;;12.43;8.35;;;;;;;16.02;61.78;101390.91;4931291;28;119700;-63
2021/09/19 05:31:20;;;;;;;12.30;7.95;;;;;;;16.02;61.79;101385.56;4937488;28;124568;-63
2021/09/19 05:33:47;;;;;;;13.30;8.20;;;;;;;16.01;61.81;101386.53;4929614;28;123912;-63
2021/09/19 05:36:15;;;;;;;13.77;8.93;;;;;;;16.01;61.88;101389.19;4937304;28;119186;-63
2021/09/19 05:38:42;;;;;;;14.73;9.10;;;;;;;16.01;61.91;101389.19;4949949;28;119089;-63
2021/09/19 05:41:09;;;;;;;13.20;8.75;;;;;;;16.02;61.88;101385.56;4947423;28;124449;-63
2021/09/19 05:43:36;;;;;;;13.80;9.05;;;;;;;16.02;61.79;101385.56;4932245;28;124039;-63
2021/09/19 05:46:04;;;;;;;14.48;8.90;;;;;;;16.04;62.01;101389.00;4934070;28;119589;-63
2021/09/19 05:48:31;;;;;;;12.63;8.45;;;;;;;16.03;61.95;101392.63;4929145;28;118593;-63
2021/09/19 05:50:58;;;;;;;13.02;8.95;;;;;;;16.04;62.19;101380.13;4930052;28;124385;-63
2021/09/19 05:53:25;;;;;;;13.43;9.23;;;;;;;16.04;62.13;101386.31;4922995;28;124351;-63
2021/09/19 05:55:53;;;;;;;14.75;8.95;;;;;;;16.05;62.06;101384.50;4930222;28;119426;-63
2021/09/19 05:58:20;;;;;;;13.23;9.68;;;;;;;16.07;62.30;101388.81;4928911;28;119050;-62
2021/09/19 06:00:47;;;;;;;17.20;9.63;;;;;;;16.09;62.39;101397.59;4933635;28;124272;-63
2021/09/19 06:03:14;;;;;;;15.25;9.15;;;;;;;16.11;62.32;101390.34;4930436;28;124677;-63
2021/09/19 06:05:42;;;;;;;15.68;9.48;;;;;;;16.14;62.43;101402.66;4930742;28;120159;-63
2021/09/19 06:08:09;;;;;;;13.93;8.75;;;;;;;16.17;62.46;101401.63;4928173;28;119146;-63
2021/09/19 06:10:36;;;;;;;14.68;9.23;;;;;;;16.19;62.29;101402.41;4930591;28;123926;-63
2021/09/19 06:13:03;;;;;;;14.30;8.90;;;;;;;16.20;62.31;101406.78;4929937;28;124002;-63
2021/09/19 06:15:30;;;;;;;14.60;9.18;;;;;;;16.21;62.50;101406.69;4924294;28;119107;-63
2021/09/19 06:17:58;;;;;;;13.57;9.18;;;;;;;16.25;62.52;101402.03;4945254;28;119221;-63
2021/09/19 06:20:25;;;;;;;14.93;9.57;;;;;;;16.28;62.37;101408.06;4928525;28;124656;-63
2021/09/19 06:22:52;;;;;;;14.35;8.98;;;;;;;16.32;62.55;101404.22;4928742;28;123740;-63
2021/09/19 06:25:19;;;;;;;14.68;8.57;;;;;;;16.35;62.45;101403.22;4931725;28;119979;-63
2021/09/19 06:27:47;;;;;;;14.00;8.77;;;;;;;16.37;62.61;101401.31;4931968;28;119370;-63
2021/09/19 06:30:14;;;;;;;15.05;9.15;;;;;;;16.40;62.47;101401.09;4946187;28;122945;-63
2021/09/19 06:32:42;;;;;;;14.95;9.32;;;;;;;16.44;62.35;101402.63;4929425;28;123923;-64
2021/09/19 06:35:10;;;;;;;14.52;9.00;;;;;;;16.50;62.70;101402.28;4930331;28;119372;-62
2021/09/19 06:37:37;;;;;;;15.00;9.15;;;;;;;16.54;62.54;101403.81;4930730;28;118136;-62
2021/09/19 06:40:05;;;;;;;13.52;8.88;;;;;;;16.59;62.65;101402.66;4930250;28;124103;-62
2021/09/19 06:42:32;;;;;;;13.77;8.90;;;;;;;16.63;62.62;101406.84;4924112;28;123805;-64
2021/09/19 06:45:00;;;;;;;13.68;8.60;;;;;;;16.68;62.70;101410.13;4929347;28;119171;-64
2021/09/19 06:47:27;;;;;;;13.25;8.57;;;;;;;16.73;62.62;101413.38;4929160;28;118974;-64
2021/09/19 06:49:55;;;;;;;12.77;7.93;;;;;;;16.80;62.82;101409.38;4930084;28;124767;-64
2021/09/19 06:52:22;;;;;;;12.68;8.35;;;;;;;16.87;62.90;101416.06;4928868;28;123731;-64
2021/09/19 06:54:50;;;;;;;14.32;8.43;;;;;;;16.96;62.90;101408.44;4931045;28;119234;-64
2021/09/19 06:57:17;;;;;;;13.65;8.40;;;;;;;17.04;62.90;101412.31;4930020;28;119742;-64
2021/09/19 06:59:44;;;;;;;12.20;7.80;;;;;;;17.11;62.84;101415.50;4929156;28;124706;-64
2021/09/19 07:02:11;;;;;;;12.10;7.97;;;;;;;17.18;62.87;101414.16;4926208;28;123849;-64
2021/09/19 07:04:39;;;;;;;14.13;8.48;;;;;;;17.25;62.78;101415.47;4928073;28;121010;-64
2021/09/19 07:07:06;;;;;;;12.57;7.85;;;;;;;17.32;62.90;101418.59;4931166;28;120695;-64
2021/09/19 07:09:33;;;;;;;11.25;7.68;;;;;;;17.37;62.71;101429.03;4926953;28;123867;-63
2021/09/19 07:12:00;;;;;;;10.98;7.00;;;;;;;17.44;62.78;101430.34;4930000;28;124754;-63
2021/09/19 07:14:27;;;;;;;10.48;7.15;;;;;;;17.50;62.67;101424.59;4930567;28;119412;-64
2021/09/19 07:16:54;;;;;;;13.57;7.70;;;;;;;17.57;62.80;101425.91;4931991;28;119565;-63
2021/09/19 07:19:22;;;;;;;10.73;6.80;;;;;;;17.64;62.65;101426.38;4922039;28;124210;-64
2021/09/19 07:21:49;;;;;;;11.73;6.93;;;;;;;17.73;62.84;101424.91;4929284;28;123920;-63
2021/09/19 07:24:16;;;;;;;10.75;6.72;;;;;;;17.82;62.94;101426.97;4937535;28;119391;-63
2021/09/19 07:26:43;;;;;;;10.15;6.53;;;;;;;17.90;62.87;101432.72;4930635;28;118820;-63
2021/09/19 07:29:11;;;;;;;8.38;6.10;;;;;;;17.99;62.72;101432.13;4928949;28;124443;-63
2021/09/19 07:31:38;;;;;;;8.95;6.50;;;;;;;18.07;62.59;101429.78;4928545;28;123890;-63
2021/09/19 07:34:05;;;;;;;9.32;6.15;;;;;;;18.14;62.45;101429.34;4931092;28;119358;-63
2021/09/19 07:36:34;;;;;;;11.60;6.22;;;;;;;18.21;62.47;101430.66;4931250;28;118626;-63
2021/09/19 07:39:06;;;;;;;8.20;5.72;;;;;;;18.30;62.45;101430.03;4928180;28;124573;-63
2021/09/19 07:41:33;;;;;;;9.80;5.88;;;;;;;18.38;62.18;101437.56;4924042;28;123749;-63
2021/09/19 07:44:01;;;;;;;9.88;5.68;;;;;;;18.42;62.10;101442.63;4929074;28;119618;-63
2021/09/19 07:46:29;;;;;;;8.05;5.05;;;;;;;18.47;61.72;101443.13;4930908;28;119428;-63
2021/09/19 07:48:56;;;;;;;7.57;5.38;;;;;;;18.53;61.58;101441.00;4928880;28;124058;-63
2021/09/19 07:51:24;;;;;;;8.50;5.53;;;;;;;18.58;61.86;101449.59;4946042;28;122888;-63
2021/09/19 07:53:51;;;;;;;7.80;5.13;;;;;;;18.65;61.93;101450.91;4925401;28;120302;-63
2021/09/19 07:56:22;;;;;;;7.63;5.43;;;;;;;18.75;61.88;101446.59;4929616;28;120039;-63
2021/09/19 07:58:49;;;;;;;6.88;4.90;;;;;;;18.85;61.72;101453.09;4928486;28;124064;-63
2021/09/19 08:01:17;;;;;;;7.47;5.03;;;;;;;18.96;61.67;101446.94;4929108;28;123803;-63
2021/09/19 08:03:47;;;;;;;8.52;4.75;;;;;;;19.07;61.46;101443.50;4925496;28;119298;-63
2021/09/19 08:06:15;;;;;;;8.07;4.78;;;;;;;19.16;61.45;101460.78;4929642;28;119619;-63
2021/09/19 08:08:42;;;;;;;6.30;4.63;;;;;;;19.22;61.21;101453.13;4927034;28;124821;-64
2021/09/19 08:11:10;;;;;;;7.10;4.57;;;;;;;19.29;61.05;101456.25;4927799;28;124941;-63
2021/09/19 08:13:37;;;;;;;5.80;4.03;;;;;;;19.37;60.66;101458.38;4927703;28;119098;-63
2021/09/19 08:16:04;;;;;;;5.50;4.10;;;;;;;19.43;60.54;101463.31;4924582;28;118759;-63
2021/09/19 08:18:33;;;;;;;5.68;4.38;;;;;;;19.48;60.60;101461.16;4929241;28;123283;-63
2021/09/19 08:21:00;;;;;;;5.32;4.00;;;;;;;19.53;60.47;101458.97;4934821;28;124089;-63
2021/09/19 08:23:27;;;;;;;5.88;3.78;;;;;;;19.58;60.19;101456.81;4951799;28;118241;-62
2021/09/19 08:25:55;;;;;;;6.70;4.13;;;;;;;19.64;60.39;101467.09;4937279;28;118980;-62
2021/09/19 08:28:22;;;;;;;6.55;4.13;;;;;;;19.72;60.05;101462.97;4935629;28;124019;-63
2021/09/19 08:30:49;;;;;;;6.53;3.88;;;;;;;19.79;59.97;101469.66;4934385;28;123807;-63
2021/09/19 08:33:17;;;;;;;5.20;3.72;;;;;;;19.83;59.66;101463.09;4935388;28;119201;-62
2021/09/19 08:35:44;;;;;;;6.78;3.90;;;;;;;19.87;59.61;101461.88;4942312;28;118063;-63
2021/09/19 08:38:11;;;;;;;5.22;3.60;;;;;;;19.91;59.52;101468.75;4936506;28;124326;-62
2021/09/19 08:40:38;;;;;;;6.35;4.32;;;;;;;19.92;59.28;101467.78;4934172;28;124625;-63
2021/09/19 08:43:06;;;;;;;4.40;3.38;;;;;;;19.96;59.10;101468.41;4935647;28;121003;-62
2021/09/19 08:45:33;;;;;;;5.45;3.50;;;;;;;19.99;58.78;101477.09;4937239;28;120706;-62
2021/09/19 08:48:01;;;;;;;5.18;3.60;;;;;;;20.03;58.78;101480.44;4934799;28;123944;-63
2021/09/19 08:50:28;;;;;;;5.50;3.55;;;;;;;20.06;58.62;101476.63;4948600;28;123910;-62
2021/09/19 08:52:55;;;;;;;6.68;3.70;;;;;;;20.08;58.67;101474.69;4934192;28;119589;-62
2021/09/19 08:55:22;;;;;;;5.45;3.67;;;;;;;20.11;58.49;101480.69;4936550;28;118807;-63
2021/09/19 08:57:49;;;;;;;5.18;3.55;;;;;;;20.17;58.54;101479.38;4936866;28;124486;-62
2021/09/19 09:00:17;;;;;;;5.25;3.78;;;;;;;20.25;58.79;101482.38;4932621;28;124029;-63
2021/09/19 09:02:54;;;;;;;5.63;3.97;;;;;;;20.32;58.54;101478.22;4932494;28;119158;-63
2021/09/19 09:05:28;;;;;;;6.82;3.45;;;;;;;20.39;58.33;101473.22;4929595;28;119171;-63
2021/09/19 09:07:58;;;;;;;4.60;3.20;;;;;;;20.46;58.34;101473.63;4936272;28;124449;-63
2021/09/19 09:10:46;;;;;;;5.20;3.55;;;;;;;20.48;57.75;101477.06;4937890;28;124208;-62
2021/09/19 09:13:22;;;;;;;6.35;3.88;;;;;;;20.52;58.14;101463.22;4933292;28;119923;-63
2021/09/19 09:16:04;;;;;;;4.90;3.60;;;;;;;20.61;57.94;101472.47;4935219;28;118995;-62
2021/09/19 09:18:40;;;;;;;6.18;3.58;;;;;;;20.71;57.89;101478.84;4936451;28;124155;-63
2021/09/19 09:21:23;;;;;;;7.00;3.50;;;;;;;20.84;57.84;101475.22;4922999;28;122928;-63
2021/09/19 09:23:56;;;;;;;5.65;3.50;;;;;;;20.93;57.76;101474.50;4934787;28;119323;-63
2021/09/19 09:26:37;;;;;;;5.68;3.67;;;;;;;21.04;57.64;101474.50;4936291;28;119356;-63
2021/09/19 09:29:13;;;;;;;6.80;3.50;;;;;;;21.14;57.32;101475.47;4935562;28;123912;-63
2021/09/19 09:31:48;;;;;;;4.45;3.30;;;;;;;21.24;56.92;101470.19;4930316;28;123764;-63
2021/09/19 09:34:24;;;;;;;9.23;3.63;;;;;;;21.30;56.62;101474.22;4930107;28;120323;-63
2021/09/19 09:36:59;;;;;;;5.28;3.42;;;;;;;21.35;56.38;101472.03;4933421;28;119946;-63
2021/09/19 09:39:29;;;;;;;5.25;3.33;;;;;;;21.41;56.59;101476.91;4931909;28;124259;-63
2021/09/19 09:42:06;;;;;;;5.32;3.60;;;;;;;21.50;56.53;101473.50;4930866;28;124783;-63
2021/09/19 09:44:39;;;;;;;5.85;3.42;;;;;;;21.64;56.38;101471.53;4928494;28;119401;-63
2021/09/19 09:47:16;;;;;;;4.97;3.58;;;;;;;21.79;56.24;101475.66;4930667;28;118988;-63
2021/09/19 09:49:59;;;;;;;4.85;3.55;;;;;;;21.86;55.77;101471.47;4928794;28;124967;-63
2021/09/19 09:52:28;;;;;;;5.78;3.38;;;;;;;21.93;55.52;101472.66;4923187;28;124661;-63
2021/09/19 09:54:56;;;;;;;5.28;3.42;;;;;;;21.95;55.30;101473.41;4930315;28;119311;-63
2021/09/19 09:57:36;;;;;;;5.78;3.33;;;;;;;21.96;55.15;101477.81;4923314;28;119362;-63
2021/09/19 10:00:11;;;;;;;5.18;3.30;;;;;;;22.00;55.01;101469.47;4930165;28;123884;-63
2021/09/19 10:02:40;;;;;;;;;;;;;;;22.01;55.67;101479.28;4917293;28;123993;-63
2021/09/19 10:05:09;;;;;;;6.28;3.20;;;;;;;22.07;55.21;101467.97;4948383;28;118508;-63
2021/09/19 10:07:39;;;;;;;5.25;3.22;;;;;;;22.12;54.64;101465.75;4931714;28;119333;-63
2021/09/19 10:10:09;;;;;;;6.55;3.20;;;;;;;22.15;54.53;101466.34;4929311;28;124766;-63
2021/09/19 10:12:37;;;;;;;5.13;3.20;;;;;;;22.22;54.56;101461.28;4928362;28;123724;-63
2021/09/19 10:15:06;;;;;;;3.70;2.83;;;;;;;22.31;54.51;101459.69;4933045;28;120170;-63
2021/09/19 10:17:35;;;;;;;4.63;2.85;;;;;;;22.41;54.20;101454.34;4931360;28;119292;-63
2021/09/19 10:20:19;;;;;;;4.30;3.20;;;;;;;22.49;53.93;101463.50;4921502;28;124401;-63
2021/09/19 10:22:55;;;;;;;5.53;3.28;;;;;;;22.54;53.58;101455.00;4939678;28;123948;-63
2021/09/19 10:25:38;;;;;;;5.03;3.20;;;;;;;22.64;54.41;101452.34;4923904;28;120010;-63
2021/09/19 10:28:39;;;;;;;4.05;3.22;;;;;;;22.76;53.95;101453.16;4928686;28;119760;-63
2021/09/19 10:31:13;;;;;;;5.07;2.85;;;;;;;22.85;53.59;101441.50;4940871;28;124688;-63
2021/09/19 10:33:48;;;;;;;4.50;3.00;;;;;;;22.93;53.56;101449.81;4926747;28;124009;-63
2021/09/19 10:36:38;;;;;;;5.20;2.92;;;;;;;22.98;53.36;101447.59;4928571;28;119856;-63
2021/09/19 10:39:17;;;;;;;4.93;3.00;;;;;;;23.07;53.25;101452.19;4924840;28;119631;-64
2021/09/19 10:42:06;;;;;;;4.40;3.17;;;;;;;23.17;53.20;101446.84;4930246;28;123951;-63
2021/09/19 10:44:45;;;;;;;5.60;3.30;;;;;;;23.25;52.60;101454.25;4925319;28;123994;-63
2021/09/19 10:47:25;;;;;;;5.32;3.15;;;;;;;23.29;52.67;101444.88;4929417;28;119191;-63
2021/09/19 10:50:27;;;;;;;5.60;2.60;;;;;;;23.37;52.72;101450.44;4925914;28;119580;-63
2021/09/19 10:53:16;;;;;;;4.97;2.95;;;;;;;23.45;52.30;101445.22;4926408;28;124075;-63
2021/09/19 10:55:51;;;;;;;4.55;3.03;;;;;;;23.50;51.85;101448.34;4929558;28;124683;-62
2021/09/19 10:58:24;;;;;;;5.30;3.13;;;;;;;23.56;51.90;101452.34;4929695;28;119293;-63
2021/09/19 11:01:34;;;;;;;4.97;3.53;;;;;;;23.59;51.47;101462.03;4925869;28;119802;-65
2021/09/19 11:04:05;;;;;;;4.45;2.90;;;;;;;23.63;51.07;101460.75;4959155;22;123477;-76
2021/09/19 11:06:38;;;;;;;4.30;3.30;;;;;;;23.65;51.32;101458.78;4946109;28;123723;-76
2021/09/19 11:09:26;;;;;;;4.20;2.92;;;;;;;23.69;51.26;101452.94;4952216;28;120215;-76
2021/09/19 11:12:07;;;;;;;4.93;3.10;;;;;;;23.77;51.13;101464.91;4951088;28;119678;-75
2021/09/19 11:15:02;;;;;;;6.82;3.33;;;;;;;23.85;51.44;101447.00;4951277;28;124392;-76
2021/09/19 11:17:34;;;;;;;5.70;3.03;;;;;;;23.98;50.73;101462.09;4953278;28;121975;-76
2021/09/19 11:20:14;;;;;;;3.78;2.65;;;;;;;24.07;50.32;101456.72;4952594;28;119556;-76
2021/09/19 11:22:47;;;;;;;5.15;2.83;;;;;;;24.11;50.07;101462.69;4947301;28;119953;-76
2021/09/19 11:25:17;;;;;;;3.75;2.50;;;;;;;24.16;49.71;101460.41;4945590;28;123766;-76